createdAt,value
2018-06-09T04:02:06.791Z,6.37
2018-06-09T04:04:36.630Z,6.27
2018-06-09T04:07:05.548Z,6.63
2018-06-09T04:09:36.457Z,8.23
2018-06-09T04:12:07.117Z,6.70
2018-06-09T04:14:36.675Z,7.80
2018-06-09T04:20:36.711Z,5.87
2018-06-09T04:23:06.541Z,6.23
2018-06-09T04:25:36.323Z,5.93
2018-06-09T04:28:06.207Z,6.20
2018-06-09T04:30:36.085Z,7.10
2018-06-09T04:33:06.824Z,5.77
2018-06-09T04:36:10.052Z,6.23
2018-06-09T04:38:39.727Z,7.20
2018-06-09T04:41:30.927Z,6.53
2018-06-09T04:44:00.817Z,6.83
2018-06-09T04:46:30.768Z,6.60
2018-06-09T04:49:00.582Z,6.90
2018-06-09T04:51:31.103Z,7.00
2018-06-09T04:54:02.068Z,6.77
2018-06-09T04:56:33.055Z,7.13
2018-06-09T04:59:03.028Z,7.00
2018-06-09T05:01:32.820Z,6.20
2018-06-09T05:04:02.687Z,6.90
2018-06-09T05:06:32.487Z,5.23
2018-06-09T05:09:02.317Z,6.40
2018-06-09T05:11:32.079Z,5.87
2018-06-09T05:14:02.023Z,5.10
2018-06-09T05:16:32.865Z,5.10
2018-06-09T05:19:02.760Z,5.47
2018-06-09T05:23:11.844Z,5.73
2018-06-09T05:25:42.382Z,5.27
2018-06-09T05:28:14.313Z,5.77
2018-06-09T05:30:44.259Z,5.73
2018-06-09T05:33:14.786Z,5.30
2018-06-09T05:35:51.947Z,5.23
2018-06-09T05:38:21.775Z,5.93
2018-06-09T05:40:51.599Z,5.70
2018-06-09T05:44:06.979Z,5.00
2018-06-09T05:46:37.938Z,5.30
2018-06-09T05:49:08.667Z,5.70
2018-06-09T05:51:40.484Z,5.67
2018-06-09T05:54:11.463Z,5.27
2018-06-09T05:57:28.701Z,5.13
2018-06-09T05:59:58.516Z,5.30
2018-06-09T06:02:54.619Z,5.70
2018-06-09T06:05:26.549Z,4.90
2018-06-09T06:08:27.644Z,6.27
2018-06-09T06:10:57.577Z,4.97
2018-06-09T06:13:31.120Z,5.63
2018-06-09T06:22:58.494Z,4.70
2018-06-09T06:25:33.985Z,5.10
2018-06-09T06:28:06.072Z,4.80
2018-06-09T06:30:38.187Z,5.20
2018-06-09T06:33:14.190Z,4.57
2018-06-09T06:35:46.433Z,4.07
2018-06-09T06:41:44.400Z,5.93
2018-06-09T06:44:50.907Z,5.73
2018-06-09T06:47:24.530Z,7.00
2018-06-09T06:49:55.537Z,7.73
2018-06-09T07:04:54.353Z,6.80
2018-06-09T07:07:25.558Z,6.70
2018-06-09T07:09:55.293Z,6.53
2018-06-09T07:12:25.833Z,6.37
2018-06-09T07:14:55.932Z,7.30
2018-06-09T07:17:26.481Z,6.30
2018-06-09T07:19:56.594Z,7.00
2018-06-09T07:22:27.304Z,6.60
2018-06-09T07:24:57.206Z,6.60
2018-06-09T07:27:27.785Z,5.20
2018-06-09T07:29:57.943Z,5.20
2018-06-09T07:32:28.698Z,4.80
2018-06-09T07:34:59.265Z,4.13
2018-06-09T07:37:29.397Z,3.80
2018-06-09T07:40:00.262Z,4.00
2018-06-09T07:45:59.576Z,3.70
2018-06-09T07:48:30.940Z,3.30
2018-06-09T07:51:06.430Z,4.93
2018-06-09T07:53:46.332Z,5.07
2018-06-09T07:56:17.121Z,3.20
2018-06-09T07:58:48.753Z,3.63
2018-06-09T08:01:18.732Z,4.67
2018-06-09T08:03:47.524Z,4.30
2018-06-09T08:06:18.397Z,4.67
2018-06-09T08:08:51.271Z,4.87
2018-06-09T08:11:24.151Z,5.33
2018-06-09T08:13:55.967Z,4.90
2018-06-09T08:16:35.624Z,4.27
2018-06-09T12:09:35.597Z,3.30
2018-06-09T12:15:03.599Z,3.47
2018-06-09T12:17:36.119Z,3.47
2018-06-09T12:20:10.415Z,3.10
2018-06-09T12:22:48.681Z,3.83
2018-06-09T12:39:11.763Z,2.27
2018-06-09T12:45:36.062Z,2.10
2018-06-09T12:55:41.980Z,2.90
2018-06-09T13:05:19.932Z,3.30
2018-06-09T13:08:18.661Z,2.93
2018-06-09T13:11:16.116Z,2.33
2018-06-09T13:20:01.824Z,3.40
2018-06-09T13:22:40.543Z,3.23
2018-06-09T13:25:13.105Z,3.73
2018-06-09T13:27:58.743Z,3.20
2018-06-09T13:30:38.336Z,3.23
2018-06-09T13:33:09.175Z,3.53
2018-06-09T13:48:02.657Z,3.00
2018-06-09T13:53:47.296Z,3.00
2018-06-09T14:03:08.247Z,3.10
2018-06-09T14:05:47.114Z,4.37
2018-06-09T14:08:21.856Z,2.50
2018-06-09T14:10:54.596Z,3.33
2018-06-09T14:13:34.454Z,2.77
2018-06-09T14:16:23.796Z,3.67
2018-06-09T14:18:55.482Z,3.20
2018-06-09T14:22:15.660Z,3.57
